Time;durP1;ratioP1;P1;durP2;ratioP2;P2;SDS_P1;SDS_P2;PMS_P1;PMS_P2;Temp;Humidity;BMP_temperature;BMP_pressure;BME280_temperature;BME280_humidity;BME280_pressure;Samples;Min_cycle;Max_cycle;Signal;HPM_P1;HPM_P2
2024/03/24 00:01:57;;;;;;;20.95;7.85;;;;;;;3.26;100.00;100422.22;5042147;28;20118;-66
2024/03/24 00:04:22;;;;;;;20.60;7.43;;;;;;;3.30;100.00;100417.13;5040492;28;20075;-67
2024/03/24 00:06:48;;;;;;;20.88;7.10;;;;;;;3.31;100.00;100418.03;5042397;28;20052;-65
2024/03/24 00:09:13;;;;;;;18.98;6.80;;;;;;;3.31;100.00;100412.78;5043754;28;20033;-66
2024/03/24 00:11:41;;;;;;;20.77;6.85;;;;;;;3.37;100.00;100412.06;5045414;28;20034;-66
2024/03/24 00:14:06;;;;;;;18.70;6.22;;;;;;;3.48;100.00;100408.91;5047683;28;20063;-66
2024/03/24 00:16:32;;;;;;;19.42;6.20;;;;;;;3.62;100.00;100418.81;5044259;28;20093;-66
2024/03/24 00:18:57;;;;;;;19.58;6.20;;;;;;;3.60;100.00;100416.16;5047756;28;20033;-66
2024/03/24 00:21:23;;;;;;;18.33;5.50;;;;;;;3.67;100.00;100418.09;5045488;28;20062;-73
2024/03/24 00:23:48;;;;;;;19.95;5.70;;;;;;;3.70;100.00;100409.47;5046303;28;20480;-76
2024/03/24 00:26:13;;;;;;;17.48;5.32;;;;;;;3.75;100.00;100412.19;5046863;28;20064;-76
2024/03/24 00:28:39;;;;;;;18.23;5.78;;;;;;;3.78;100.00;100412.25;5044973;28;20029;-77
2024/03/24 00:31:04;;;;;;;18.52;5.50;;;;;;;3.78;100.00;100407.91;5047829;28;20044;-75
2024/03/24 00:33:29;;;;;;;19.25;5.55;;;;;;;3.82;100.00;100388.81;5044511;28;20076;-77
2024/03/24 00:35:55;;;;;;;18.70;5.60;;;;;;;3.82;100.00;100394.06;5046969;28;20041;-77
2024/03/24 00:38:20;;;;;;;18.00;5.60;;;;;;;3.84;100.00;100389.78;5045781;28;20041;-74
2024/03/24 00:40:46;;;;;;;17.52;5.50;;;;;;;3.82;100.00;100385.34;5045513;28;20052;-66
2024/03/24 00:43:14;;;;;;;19.08;5.70;;;;;;;3.67;100.00;100372.78;5046273;28;20028;-65
2024/03/24 00:45:39;;;;;;;18.00;6.05;;;;;;;3.57;100.00;100394.28;5044711;28;20034;-70
2024/03/24 00:48:05;;;;;;;23.02;6.57;;;;;;;3.44;100.00;100386.13;5047488;28;20029;-64
2024/03/24 00:50:30;;;;;;;19.00;6.45;;;;;;;3.36;100.00;100378.94;5039999;28;20033;-65
2024/03/24 00:52:55;;;;;;;18.90;6.50;;;;;;;3.31;100.00;100371.84;5046865;28;20482;-65
2024/03/24 00:55:21;;;;;;;20.80;7.18;;;;;;;3.28;100.00;100370.91;5045085;28;20463;-64
2024/03/24 00:57:46;;;;;;;18.83;6.57;;;;;;;3.27;100.00;100361.28;5045256;28;20099;-66
2024/03/24 01:00:12;;;;;;;19.92;6.50;;;;;;;3.22;100.00;100360.28;5046873;28;20040;-65
2024/03/24 01:02:37;;;;;;;20.33;6.80;;;;;;;3.23;100.00;100356.81;5043669;28;20032;-65
2024/03/24 01:05:04;;;;;;;21.17;7.43;;;;;;;3.20;100.00;100352.41;5047152;28;20795;-65
2024/03/24 01:07:30;;;;;;;19.98;7.47;;;;;;;3.16;100.00;100339.22;5043819;28;20056;-65
2024/03/24 01:09:56;;;;;;;20.38;7.25;;;;;;;3.16;100.00;100344.44;5046364;28;20037;-64
2024/03/24 01:12:23;;;;;;;20.42;7.28;;;;;;;3.19;100.00;100340.19;5044653;28;20029;-65
2024/03/24 01:14:48;;;;;;;20.65;7.07;;;;;;;3.20;100.00;100341.06;5045459;28;20433;-65
2024/03/24 01:17:13;;;;;;;20.48;7.63;;;;;;;3.17;100.00;100341.00;5042883;28;20100;-66
2024/03/24 01:19:39;;;;;;;21.27;7.63;;;;;;;3.21;100.00;100337.63;5046197;28;20435;-72
2024/03/24 01:22:04;;;;;;;20.48;7.60;;;;;;;3.26;100.00;100341.22;5043768;28;20033;-71
2024/03/24 01:24:30;;;;;;;20.80;7.95;;;;;;;3.24;100.00;100340.31;5046712;28;20059;-71
2024/03/24 01:26:55;;;;;;;21.73;8.50;;;;;;;3.24;100.00;100322.03;5044017;28;20061;-78
2024/03/24 01:29:20;;;;;;;21.42;8.15;;;;;;;3.28;100.00;100313.44;5045537;28;20036;-77
2024/03/24 01:31:46;;;;;;;21.33;8.10;;;;;;;3.31;100.00;100316.13;5045374;28;20029;-77
2024/03/24 01:34:11;;;;;;;22.83;8.70;;;;;;;3.26;100.00;100325.56;5044373;28;20029;-72
2024/03/24 01:36:36;;;;;;;22.58;9.02;;;;;;;3.25;100.00;100319.47;5046693;28;20021;-69
2024/03/24 01:39:02;;;;;;;22.02;9.25;;;;;;;3.28;100.00;100322.13;5043220;28;20042;-74
2024/03/24 01:41:28;;;;;;;22.40;9.63;;;;;;;3.25;100.00;100313.34;5043610;28;20056;-71
2024/03/24 01:43:54;;;;;;;22.65;10.00;;;;;;;3.24;100.00;100302.00;5045699;28;20461;-76
2024/03/24 01:46:19;;;;;;;21.63;10.10;;;;;;;3.29;100.00;100305.63;5044856;28;20051;-76
2024/03/24 01:48:44;;;;;;;21.75;9.98;;;;;;;3.27;100.00;100295.97;5044308;28;20496;-76
2024/03/24 01:51:12;;;;;;;23.48;11.60;;;;;;;3.25;100.00;100295.06;5045993;28;20078;-79
2024/03/24 01:53:38;;;;;;;26.20;11.93;;;;;;;3.24;100.00;100285.47;5043250;28;20025;-78
2024/03/24 01:56:04;;;;;;;24.67;11.98;;;;;;;3.23;100.00;100292.41;5046647;28;20036;-77
2024/03/24 01:58:32;;;;;;;24.63;13.05;;;;;;;3.22;100.00;100276.69;5042984;28;20029;-76
2024/03/24 02:00:58;;;;;;;26.13;14.32;;;;;;;3.24;100.00;100277.63;5045571;28;20033;-73
2024/03/24 02:03:23;;;;;;;28.05;14.52;;;;;;;3.22;100.00;100281.91;5043982;28;20052;-74
2024/03/24 02:05:48;;;;;;;27.52;14.68;;;;;;;3.20;100.00;100281.00;5043422;28;20123;-72
2024/03/24 02:08:15;;;;;;;27.08;14.35;;;;;;;3.20;100.00;100262.72;5044955;28;20029;-76
2024/03/24 02:10:40;;;;;;;26.95;13.93;;;;;;;3.23;100.00;100262.78;5043670;28;20021;-77
2024/03/24 02:13:08;;;;;;;27.15;13.55;;;;;;;3.25;100.00;100256.75;5045796;28;20035;-65
2024/03/24 02:15:33;;;;;;;25.20;12.65;;;;;;;3.25;100.00;100259.38;5041026;28;20057;-65
2024/03/24 02:17:59;;;;;;;25.48;12.85;;;;;;;3.30;100.00;100257.72;5045535;28;20025;-65
2024/03/24 02:20:24;;;;;;;25.48;12.23;;;;;;;3.32;100.00;100257.81;5041690;28;20379;-66
2024/03/24 02:22:49;;;;;;;26.20;12.73;;;;;;;3.31;100.00;100246.44;5044342;28;20385;-66
2024/03/24 02:25:14;;;;;;;25.42;11.88;;;;;;;3.34;100.00;100245.66;5044435;28;20443;-66
2024/03/24 02:27:40;;;;;;;25.73;12.77;;;;;;;3.35;100.00;100250.03;5041168;28;20455;-66
2024/03/24 02:30:10;;;;;;;25.52;12.07;;;;;;;3.37;100.00;100244.84;5044408;28;20114;-65
2024/03/24 02:32:36;;;;;;;25.23;11.85;;;;;;;3.37;100.00;100253.56;5036588;28;20420;-65
2024/03/24 02:35:01;;;;;;;25.10;11.60;;;;;;;3.38;100.00;100247.50;5045167;28;20036;-66
2024/03/24 02:37:27;;;;;;;23.98;11.00;;;;;;;3.44;100.00;100247.63;5042761;28;20030;-66
2024/03/24 02:39:53;;;;;;;26.10;11.38;;;;;;;3.46;100.00;100245.91;5042718;28;20079;-66
2024/03/24 02:42:19;;;;;;;24.13;11.13;;;;;;;3.49;100.00;100246.03;5043380;28;20060;-66
2024/03/24 02:44:44;;;;;;;24.30;11.45;;;;;;;3.49;100.00;100243.41;5043062;28;20088;-66
2024/03/24 02:47:09;;;;;;;25.23;10.95;;;;;;;3.55;100.00;100240.03;5044626;28;20395;-66
2024/03/24 02:49:35;;;;;;;24.77;11.75;;;;;;;3.56;100.00;100238.31;5041576;28;20391;-65
2024/03/24 02:52:00;;;;;;;26.25;11.48;;;;;;;3.54;100.00;100235.66;5045275;28;20064;-65
2024/03/24 02:54:25;;;;;;;25.27;11.40;;;;;;;3.57;100.00;100237.44;5041202;28;20482;-66
2024/03/24 02:56:51;;;;;;;24.25;11.25;;;;;;;3.61;100.00;100228.84;5043423;28;20032;-67
2024/03/24 02:59:16;;;;;;;25.67;11.30;;;;;;;3.61;100.00;100231.44;5043642;28;20029;-67
2024/03/24 03:01:41;;;;;;;25.70;11.35;;;;;;;3.60;100.00;100232.31;5041917;28;20043;-68
2024/03/24 03:04:08;;;;;;;24.98;11.38;;;;;;;3.61;100.00;100224.50;5044733;28;20054;-66
2024/03/24 03:06:34;;;;;;;23.40;10.75;;;;;;;3.61;100.00;100234.97;5040239;28;20084;-66
2024/03/24 03:08:59;;;;;;;24.60;11.20;;;;;;;3.62;100.00;100221.03;5044495;28;20021;-66
2024/03/24 03:11:24;;;;;;;24.27;10.70;;;;;;;3.66;100.00;100222.88;5042372;28;20033;-67
2024/03/24 03:13:50;;;;;;;25.73;10.50;;;;;;;3.69;100.00;100223.81;5043319;28;20038;-68
2024/03/24 03:16:15;;;;;;;23.90;10.73;;;;;;;3.66;100.00;100217.63;5043414;28;20021;-73
2024/03/24 03:18:40;;;;;;;24.65;11.00;;;;;;;3.70;100.00;100221.22;5041895;28;20071;-69
2024/03/24 03:21:06;;;;;;;27.25;11.82;;;;;;;3.70;100.00;100218.59;5044564;28;20063;-68
2024/03/24 03:23:31;;;;;;;26.45;12.40;;;;;;;3.70;100.00;100222.94;5041605;28;20037;-66
2024/03/24 03:25:56;;;;;;;25.45;11.80;;;;;;;3.73;100.00;100215.16;5043776;28;20041;-66
2024/03/24 03:28:21;;;;;;;25.02;12.55;;;;;;;3.71;100.00;100209.88;5042473;28;20029;-66
2024/03/24 03:30:47;;;;;;;26.63;13.05;;;;;;;3.75;100.00;100216.97;5042331;28;20041;-66
2024/03/24 03:33:12;;;;;;;26.40;12.68;;;;;;;3.75;100.00;100223.94;5043775;28;20135;-66
2024/03/24 03:35:37;;;;;;;26.13;12.25;;;;;;;3.72;100.00;100201.22;5041106;28;20068;-67
2024/03/24 03:38:03;;;;;;;28.63;13.75;;;;;;;3.74;100.00;100211.69;5043034;28;20106;-69
2024/03/24 03:40:29;;;;;;;25.88;13.60;;;;;;;3.73;100.00;100208.22;5041526;28;20077;-71
2024/03/24 03:42:54;;;;;;;25.83;13.98;;;;;;;3.72;100.00;100200.34;5043374;28;20044;-67
2024/03/24 03:45:23;;;;;;;26.15;14.68;;;;;;;3.72;100.00;100205.56;5042666;28;20027;-67
2024/03/24 03:47:49;;;;;;;26.13;14.77;;;;;;;3.75;100.00;100214.34;5042624;28;20026;-68
2024/03/24 03:50:17;;;;;;;28.70;16.45;;;;;;;3.78;100.00;100214.41;5043445;28;20106;-66
2024/03/24 03:52:47;;;;;;;25.80;15.20;;;;;;;3.87;100.00;100224.19;5041300;28;20040;-68
2024/03/24 03:55:13;;;;;;;27.45;16.77;;;;;;;3.81;100.00;100214.47;5043601;28;20032;-71
2024/03/24 03:57:39;;;;;;;30.08;16.60;;;;;;;3.76;100.00;100220.47;5040976;28;20108;-73
2024/03/24 04:00:10;;;;;;;29.58;18.08;;;;;;;3.71;100.00;100215.13;5044325;28;20031;-69
2024/03/24 04:02:40;;;;;;;29.95;16.73;;;;;;;3.63;100.00;100212.34;5037389;28;20514;-73
2024/03/24 04:05:12;;;;;;;31.10;16.80;;;;;;;3.51;100.00;100201.63;5037204;28;20032;-68
2024/03/24 04:07:38;;;;;;;29.95;16.98;;;;;;;3.60;100.00;100206.19;5037879;28;20034;-71
2024/03/24 04:10:05;;;;;;;31.77;19.05;;;;;;;3.58;100.00;100203.53;5044546;28;20099;-69
2024/03/24 04:12:31;;;;;;;34.95;19.92;;;;;;;3.61;100.00;100200.06;5040711;28;20495;-72
2024/03/24 04:15:00;;;;;;;34.33;20.45;;;;;;;3.65;100.00;100209.75;5043632;28;20030;-72
2024/03/24 04:17:26;;;;;;;36.00;20.98;;;;;;;3.69;100.00;100210.72;5041671;28;20033;-72
2024/03/24 04:19:52;;;;;;;38.53;21.27;;;;;;;3.69;100.00;100188.06;5042680;28;20030;-76
2024/03/24 04:22:18;;;;;;;38.65;23.08;;;;;;;3.74;100.00;100188.16;5042719;28;20476;-67
2024/03/24 04:24:46;;;;;;;37.28;24.30;;;;;;;3.77;100.00;100186.53;5041695;28;20053;-66
2024/03/24 04:27:11;;;;;;;41.75;25.15;;;;;;;3.78;100.00;100171.69;5043423;28;20048;-75
2024/03/24 04:29:37;;;;;;;42.75;25.33;;;;;;;3.78;100.00;100177.81;5041023;28;20057;-76
2024/03/24 04:32:03;;;;;;;42.92;25.17;;;;;;;3.77;100.00;100190.84;5043911;28;20479;-66
2024/03/24 04:34:28;;;;;;;42.03;24.45;;;;;;;3.79;100.00;100184.81;5040862;28;20413;-67
2024/03/24 04:36:54;;;;;;;39.55;22.23;;;;;;;3.79;100.00;100182.19;5042309;28;20040;-66
2024/03/24 04:39:19;;;;;;;42.05;22.70;;;;;;;3.78;100.00;100177.81;5040981;28;20383;-67
2024/03/24 04:41:48;;;;;;;39.03;19.80;;;;;;;3.82;100.00;100187.47;5041299;28;20443;-67
2024/03/24 04:44:13;;;;;;;37.72;19.83;;;;;;;3.79;100.00;100184.81;5042893;28;20033;-66
2024/03/24 04:46:39;;;;;;;36.67;17.60;;;;;;;3.81;100.00;100187.44;5040628;28;20025;-66
2024/03/24 04:49:04;;;;;;;38.67;17.13;;;;;;;3.85;100.00;100191.91;5043668;28;20458;-67
2024/03/24 04:51:31;;;;;;;35.05;16.27;;;;;;;3.86;100.00;100187.53;5040393;28;20030;-67
2024/03/24 04:53:56;;;;;;;34.22;15.70;;;;;;;3.84;100.00;100188.41;5042901;28;20025;-67
2024/03/24 04:56:22;;;;;;;34.72;15.40;;;;;;;3.82;100.00;100184.88;5044329;28;20048;-66
2024/03/24 04:58:47;;;;;;;37.65;15.23;;;;;;;3.83;100.00;100196.22;5045009;28;20021;-66
2024/03/24 05:01:13;;;;;;;34.03;14.35;;;;;;;3.86;100.00;100190.16;5046469;28;20029;-66
2024/03/24 05:03:38;;;;;;;33.08;13.88;;;;;;;3.87;100.00;100199.78;5043774;28;20037;-67
2024/03/24 05:06:04;;;;;;;32.25;12.82;;;;;;;3.90;100.00;100195.47;5047116;28;20040;-66
2024/03/24 05:08:33;;;;;;;34.25;13.05;;;;;;;3.92;100.00;100192.94;5044071;28;20030;-67
2024/03/24 05:11:00;;;;;;;35.22;12.88;;;;;;;3.91;100.00;100191.16;5046328;28;20413;-67
2024/03/24 05:13:25;;;;;;;32.53;12.07;;;;;;;3.95;100.00;100195.59;5044694;28;20402;-66
2024/03/24 05:15:54;;;;;;;33.53;11.77;;;;;;;3.97;100.00;100191.28;5044089;28;20026;-67
2024/03/24 05:18:20;;;;;;;31.60;11.07;;;;;;;4.01;100.00;100187.88;5045155;28;20399;-66
2024/03/24 05:20:45;;;;;;;30.48;10.60;;;;;;;4.05;100.00;100204.50;5044132;28;20029;-67
2024/03/24 05:23:18;;;;;;;31.73;10.57;;;;;;;4.06;100.00;100195.81;5045198;28;20443;-67
2024/03/24 05:25:47;;;;;;;;;;;;;;;4.13;100.00;100193.34;5044201;28;20576;-76
2024/03/24 05:28:12;;;;;;;31.25;9.85;;;;;;;4.10;100.00;100197.63;5046176;28;19968;-76
2024/03/24 05:30:37;;;;;;;29.40;10.00;;;;;;;4.07;100.00;100195.84;5043378;28;20041;-72
2024/03/24 05:33:03;;;;;;;30.83;9.95;;;;;;;4.09;100.00;100195.88;5046622;28;20025;-76
2024/03/24 05:35:28;;;;;;;28.13;9.70;;;;;;;4.08;100.00;100195.00;5044104;28;20029;-78
2024/03/24 05:37:53;;;;;;;30.02;9.95;;;;;;;4.07;100.00;100189.75;5045907;28;20033;-78
2024/03/24 05:40:19;;;;;;;27.48;9.45;;;;;;;4.05;100.00;100191.41;5045706;28;20065;-75
2024/03/24 05:42:44;;;;;;;28.70;9.52;;;;;;;4.04;100.00;100201.00;5044475;28;20060;-79
2024/03/24 05:45:09;;;;;;;29.33;10.82;;;;;;;4.00;100.00;100213.16;5047371;28;20032;-72
2024/03/24 05:47:36;;;;;;;25.85;9.60;;;;;;;4.00;100.00;100199.19;5043271;28;20029;-67
2024/03/24 05:50:01;;;;;;;30.20;10.02;;;;;;;4.01;100.00;100214.03;5043704;28;20029;-67
2024/03/24 05:52:27;;;;;;;28.38;9.95;;;;;;;4.02;100.00;100205.34;5045714;28;20109;-67
2024/03/24 05:54:52;;;;;;;25.17;8.80;;;;;;;4.03;100.00;100211.44;5044898;28;20025;-78
2024/03/24 05:57:18;;;;;;;26.83;9.02;;;;;;;4.04;100.00;100213.22;5045382;28;20476;-76
2024/03/24 05:59:43;;;;;;;27.27;9.00;;;;;;;4.08;100.00;100223.78;5046161;28;20047;-79
2024/03/24 06:02:09;;;;;;;25.27;8.65;;;;;;;4.08;100.00;100220.25;5043592;28;20086;-78
2024/03/24 06:04:34;;;;;;;25.83;7.95;;;;;;;4.05;100.00;100226.31;5047501;28;20089;-79
2024/03/24 06:06:59;;;;;;;21.65;6.82;;;;;;;4.09;100.00;100230.78;5043092;28;20058;-78
2024/03/24 06:09:24;;;;;;;22.30;6.65;;;;;;;4.08;100.00;100235.94;5044985;28;20025;-78
2024/03/24 06:11:50;;;;;;;20.95;6.30;;;;;;;4.01;100.00;100234.94;5044369;28;20036;-66
2024/03/24 06:14:15;;;;;;;22.98;6.50;;;;;;;3.91;100.00;100233.00;5043215;28;20029;-67
2024/03/24 06:16:41;;;;;;;22.60;6.72;;;;;;;3.87;100.00;100242.50;5045450;28;20036;-67
2024/03/24 06:19:06;;;;;;;21.45;6.10;;;;;;;3.90;100.00;100231.22;5042678;28;20109;-66
2024/03/24 06:21:31;;;;;;;21.73;6.20;;;;;;;3.96;100.00;100240.09;5045327;28;20047;-66
2024/03/24 06:23:57;;;;;;;21.67;6.53;;;;;;;4.02;100.00;100236.72;5043044;28;20060;-66
2024/03/24 06:26:22;;;;;;;23.08;6.78;;;;;;;4.00;100.00;100246.25;5042741;28;20073;-66
2024/03/24 06:28:47;;;;;;;22.88;6.72;;;;;;;3.92;100.00;100240.88;5044299;28;20067;-66
2024/03/24 06:31:13;;;;;;;23.20;7.15;;;;;;;3.91;100.00;100235.59;5042797;28;20029;-66
2024/03/24 06:33:39;;;;;;;22.33;6.68;;;;;;;3.92;100.00;100247.84;5045492;28;20035;-66
2024/03/24 06:36:04;;;;;;;24.23;7.43;;;;;;;3.90;100.00;100242.56;5037961;28;20030;-67
2024/03/24 06:38:30;;;;;;;24.27;7.80;;;;;;;3.94;100.00;100248.75;5044795;28;20029;-66
2024/03/24 06:40:55;;;;;;;25.48;7.85;;;;;;;4.00;100.00;100251.50;5042890;28;20033;-66
2024/03/24 06:43:33;;;;;;;24.55;7.82;;;;;;;3.98;100.00;100247.97;5043703;28;20033;-67
2024/03/24 06:45:58;;;;;;;27.58;8.38;;;;;;;4.03;100.00;100250.69;5042572;28;20045;-67
2024/03/24 06:48:23;;;;;;;29.02;8.75;;;;;;;4.06;100.00;100248.13;5043889;28;20491;-66
2024/03/24 06:50:49;;;;;;;27.27;9.00;;;;;;;4.13;100.00;100253.50;5042733;28;20033;-67
2024/03/24 06:53:15;;;;;;;27.95;9.48;;;;;;;4.18;100.00;100245.78;5042382;28;20373;-67
2024/03/24 06:55:40;;;;;;;29.33;9.35;;;;;;;4.17;100.00;100242.25;5045115;28;20503;-67
2024/03/24 06:58:05;;;;;;;28.40;9.88;;;;;;;4.19;100.00;100248.44;5041141;28;20483;-67
2024/03/24 07:00:31;;;;;;;29.63;9.30;;;;;;;4.17;100.00;100252.72;5041866;28;20038;-67
2024/03/24 07:02:57;;;;;;;29.40;9.18;;;;;;;4.16;100.00;100240.50;5044074;28;20025;-66
2024/03/24 07:05:22;;;;;;;27.23;9.18;;;;;;;4.17;100.00;100241.38;5042959;28;20029;-66
2024/03/24 07:07:49;;;;;;;25.08;9.27;;;;;;;4.18;100.00;100251.03;5042701;28;20029;-67
2024/03/24 07:10:14;;;;;;;27.42;8.93;;;;;;;4.21;100.00;100258.03;5043895;28;20025;-66
2024/03/24 07:12:40;;;;;;;27.40;9.55;;;;;;;4.19;100.00;100255.38;5041287;28;20037;-68
2024/03/24 07:15:05;;;;;;;28.10;8.85;;;;;;;4.22;100.00;100259.78;5045222;28;20033;-67
2024/03/24 07:17:31;;;;;;;29.48;10.18;;;;;;;4.25;100.00;100257.25;5041290;28;20103;-67
2024/03/24 07:19:56;;;;;;;29.35;9.52;;;;;;;4.33;100.00;100260.91;5042151;28;20374;-67
2024/03/24 07:22:22;;;;;;;30.75;10.40;;;;;;;4.39;100.00;100258.41;5041644;28;20045;-68
2024/03/24 07:24:47;;;;;;;29.45;10.10;;;;;;;4.46;100.00;100262.91;5041997;28;20034;-68
2024/03/24 07:27:13;;;;;;;26.92;9.70;;;;;;;4.44;100.00;100262.03;5043900;28;20502;-67
2024/03/24 07:29:40;;;;;;;31.13;10.32;;;;;;;4.62;100.00;100263.22;5041110;28;20087;-67
2024/03/24 07:32:06;;;;;;;27.40;10.25;;;;;;;4.78;100.00;100257.41;5037298;28;20021;-68
2024/03/24 07:34:32;;;;;;;26.42;9.10;;;;;;;4.81;100.00;100272.31;5044302;28;20025;-68
2024/03/24 07:36:57;;;;;;;29.10;9.27;;;;;;;4.85;100.00;100272.41;5044521;28;20049;-69
2024/03/24 07:39:25;;;;;;;25.88;8.68;;;;;;;4.90;100.00;100269.84;5042456;28;20045;-67
2024/03/24 07:41:53;;;;;;;27.70;8.60;;;;;;;5.02;100.00;100272.72;5041208;28;20122;-67
2024/03/24 07:44:19;;;;;;;24.83;7.40;;;;;;;5.15;100.00;100258.06;5043137;28;20029;-67
2024/03/24 07:46:45;;;;;;;23.75;8.05;;;;;;;5.21;100.00;100270.38;5041382;28;20113;-67
2024/03/24 07:49:10;;;;;;;25.17;8.00;;;;;;;5.29;100.00;100271.41;5044234;28;20037;-67
2024/03/24 07:51:37;;;;;;;23.75;6.95;;;;;;;5.43;100.00;100265.50;5040982;28;20026;-67
2024/03/24 07:54:03;;;;;;;25.88;7.60;;;;;;;5.43;100.00;100263.75;5043680;28;20061;-67
2024/03/24 07:56:28;;;;;;;23.92;7.20;;;;;;;5.62;100.00;100271.91;5041599;28;20060;-67
2024/03/24 07:58:54;;;;;;;22.42;6.55;;;;;;;5.64;100.00;100272.84;5042623;28;20030;-67
2024/03/24 08:01:19;;;;;;;20.63;5.80;;;;;;;5.79;100.00;100283.53;5042509;28;20040;-68
2024/03/24 08:03:44;;;;;;;22.02;5.72;;;;;;;5.89;100.00;100264.47;5041464;28;20029;-68
2024/03/24 08:06:11;;;;;;;21.17;5.90;;;;;;;6.14;100.00;100259.56;5044058;28;20116;-68
2024/03/24 08:08:36;;;;;;;21.95;5.53;;;;;;;6.44;100.00;100269.59;5039489;28;20354;-68
2024/03/24 08:11:02;;;;;;;22.55;5.47;;;;;;;6.35;100.00;100268.59;5043666;28;20048;-67
2024/03/24 08:13:28;;;;;;;20.60;4.85;;;;;;;6.33;100.00;100275.56;5041424;28;20029;-68
2024/03/24 08:15:53;;;;;;;17.70;4.20;;;;;;;6.53;100.00;100255.69;5042442;28;20076;-67
2024/03/24 08:18:18;;;;;;;21.42;4.78;;;;;;;6.60;100.00;100262.78;5042838;28;20029;-68
2024/03/24 08:20:48;;;;;;;19.73;4.63;;;;;;;6.77;100.00;100248.94;5041162;28;20037;-67
2024/03/24 08:23:14;;;;;;;21.52;5.10;;;;;;;6.61;100.00;100277.69;5043384;28;20085;-68
2024/03/24 08:25:44;;;;;;;22.08;5.03;;;;;;;6.77;100.00;100262.06;5040181;28;20470;-67
2024/03/24 08:28:10;;;;;;;18.48;4.25;;;;;;;6.97;100.00;100270.16;5037135;28;20041;-68
2024/03/24 08:30:39;;;;;;;18.58;4.63;;;;;;;6.79;100.00;100276.13;5045483;28;20045;-67
2024/03/24 08:33:05;;;;;;;19.45;4.82;;;;;;;6.91;100.00;100273.59;5044405;28;20037;-67
2024/03/24 08:35:31;;;;;;;20.88;4.75;;;;;;;7.10;100.00;100276.41;5047048;28;20052;-67
2024/03/24 08:37:57;;;;;;;18.95;4.35;;;;;;;7.04;100.00;100282.50;5045241;28;20028;-67
2024/03/24 08:40:22;;;;;;;17.48;4.40;;;;;;;7.05;100.00;100288.63;5048275;28;20032;-67
2024/03/24 08:42:47;;;;;;;19.20;4.20;;;;;;;6.98;100.00;100278.06;5044668;28;20029;-68
2024/03/24 08:45:13;;;;;;;18.92;3.90;;;;;;;6.95;100.00;100278.03;5043637;28;20033;-68
2024/03/24 08:47:38;;;;;;;19.33;4.30;;;;;;;6.72;100.00;100274.28;5048343;28;20057;-77
2024/03/24 08:50:04;;;;;;;21.35;4.53;;;;;;;6.75;100.00;100275.19;5044687;28;20091;-73
2024/03/24 08:52:30;;;;;;;20.75;4.95;;;;;;;6.97;100.00;100271.06;5046892;28;20025;-73
2024/03/24 08:54:56;;;;;;;22.00;5.22;;;;;;;7.19;100.00;100286.13;5045936;28;20035;-76
2024/03/24 08:57:21;;;;;;;17.60;4.15;;;;;;;7.17;100.00;100290.50;5045474;28;20116;-77
2024/03/24 08:59:46;;;;;;;20.50;4.65;;;;;;;7.23;100.00;100282.69;5046630;28;20108;-70
2024/03/24 09:02:12;;;;;;;19.10;4.25;;;;;;;7.48;100.00;100273.25;5044049;28;20084;-68
2024/03/24 09:04:37;;;;;;;19.83;4.50;;;;;;;8.12;100.00;100279.81;5047494;28;20355;-76
2024/03/24 09:07:03;;;;;;;20.83;4.50;;;;;;;8.59;100.00;100281.81;5043429;28;20040;-71
2024/03/24 09:09:28;;;;;;;18.50;4.13;;;;;;;8.45;100.00;100278.25;5046189;28;20029;-77
2024/03/24 09:11:53;;;;;;;20.27;4.22;;;;;;;8.29;100.00;100286.03;5045475;28;20021;-73
2024/03/24 09:14:19;;;;;;;18.80;4.00;;;;;;;8.30;100.00;100287.81;5043795;28;20030;-79
2024/03/24 09:16:44;;;;;;;20.60;4.15;;;;;;;8.25;100.00;100283.38;5046765;28;20036;-76
2024/03/24 09:19:09;;;;;;;18.83;4.43;;;;;;;8.44;100.00;100271.19;5043744;28;20025;-75
2024/03/24 09:21:35;;;;;;;19.27;4.20;;;;;;;8.20;100.00;100278.09;5047777;28;20480;-67
2024/03/24 09:24:01;;;;;;;19.98;3.90;;;;;;;8.26;100.00;100293.94;5046338;28;20044;-68
2024/03/24 09:26:26;;;;;;;19.15;3.90;;;;;;;8.35;100.00;100282.56;5044311;28;20401;-68
2024/03/24 09:28:51;;;;;;;20.63;4.32;;;;;;;8.34;100.00;100292.22;5044779;28;20152;-68
2024/03/24 09:31:17;;;;;;;17.85;3.72;;;;;;;8.21;100.00;100290.38;5044401;28;20043;-68
2024/03/24 09:33:42;;;;;;;19.10;3.65;;;;;;;8.06;100.00;100277.16;5043187;28;20037;-68
2024/03/24 09:36:08;;;;;;;19.42;3.65;;;;;;;7.98;100.00;100288.50;5046703;28;20032;-67
2024/03/24 09:38:33;;;;;;;17.95;3.33;;;;;;;7.95;100.00;100299.03;5043166;28;20101;-67
2024/03/24 09:40:59;;;;;;;19.65;3.80;;;;;;;7.86;100.00;100296.31;5045251;28;20038;-67
2024/03/24 09:43:24;;;;;;;17.42;3.60;;;;;;;7.90;100.00;100298.09;5044413;28;20538;-68
2024/03/24 09:45:50;;;;;;;17.98;3.92;;;;;;;7.97;100.00;100299.91;5044136;28;20491;-68
2024/03/24 09:48:16;;;;;;;18.38;4.00;;;;;;;7.78;100.00;100293.63;5045982;28;20053;-67
2024/03/24 09:50:42;;;;;;;18.38;3.78;;;;;;;7.68;100.00;100297.06;5042979;28;20452;-68
2024/03/24 09:53:08;;;;;;;21.48;4.05;;;;;;;7.63;100.00;100293.50;5046219;28;20035;-66
2024/03/24 09:55:35;;;;;;;20.10;4.25;;;;;;;7.68;100.00;100291.81;5041913;28;20427;-65
2024/03/24 09:58:00;;;;;;;19.80;3.63;;;;;;;7.60;100.00;100299.66;5045276;28;20484;-65
2024/03/24 10:00:26;;;;;;;19.42;4.10;;;;;;;7.70;100.00;100302.34;5044040;28;20095;-66
2024/03/24 10:02:52;;;;;;;18.40;4.10;;;;;;;7.88;100.00;100306.84;5044277;28;20029;-66
2024/03/24 10:05:20;;;;;;;18.88;3.90;;;;;;;8.15;100.00;100299.13;5045016;28;20025;-66
2024/03/24 10:07:46;;;;;;;19.50;3.88;;;;;;;8.12;100.00;100291.22;5043592;28;20388;-72
2024/03/24 10:10:13;;;;;;;18.77;3.78;;;;;;;8.13;100.00;100315.81;5046418;28;20036;-72
2024/03/24 10:12:38;;;;;;;21.05;3.90;;;;;;;8.06;100.00;100308.72;5046108;28;20445;-75
2024/03/24 10:15:15;;;;;;;20.95;4.32;;;;;;;7.85;100.00;100331.41;5043172;28;20112;-73
2024/03/24 10:17:40;;;;;;;20.48;4.10;;;;;;;7.70;100.00;100300.59;5046242;28;20475;-72
2024/03/24 10:20:06;;;;;;;19.35;4.00;;;;;;;7.83;100.00;100309.44;5042753;28;20075;-74
2024/03/24 10:22:31;;;;;;;18.67;4.05;;;;;;;7.98;100.00;100313.94;5047613;28;20116;-71
2024/03/24 10:24:56;;;;;;;19.20;3.78;;;;;;;8.02;100.00;100307.81;5045373;28;20057;-73
2024/03/24 10:27:22;;;;;;;21.02;4.00;;;;;;;8.00;100.00;100314.84;5044611;28;20045;-73
2024/03/24 10:29:47;;;;;;;19.48;3.70;;;;;;;7.91;100.00;100326.19;5043897;28;20388;-77
2024/03/24 10:32:12;;;;;;;19.15;4.00;;;;;;;7.47;100.00;100329.31;5046168;28;20029;-71
2024/03/24 10:34:40;;;;;;;20.63;3.92;;;;;;;6.90;100.00;100340.19;5042734;28;20037;-78
2024/03/24 10:37:09;;;;;;;18.20;3.70;;;;;;;6.51;100.00;100328.31;5045721;28;20108;-67
2024/03/24 10:39:35;;;;;;;19.83;4.05;;;;;;;6.69;100.00;100329.41;5046057;28;20033;-73
2024/03/24 10:42:06;;;;;;;19.40;4.18;;;;;;;6.69;100.00;100327.66;5043286;28;20032;-69
2024/03/24 10:44:35;;;;;;;19.05;3.85;;;;;;;6.97;100.00;100335.84;5045360;28;20029;-68
2024/03/24 10:47:01;;;;;;;22.15;4.47;;;;;;;6.60;100.00;100338.94;5043639;28;20037;-66
2024/03/24 10:49:27;;;;;;;20.17;4.22;;;;;;;6.39;100.00;100365.81;5044338;28;20515;-65
2024/03/24 10:51:54;;;;;;;21.23;4.50;;;;;;;6.14;100.00;100363.69;5043843;28;20052;-65
2024/03/24 10:54:21;;;;;;;21.23;4.63;;;;;;;5.90;100.00;100370.31;5042320;28;20032;-65
2024/03/24 10:56:47;;;;;;;19.88;5.00;;;;;;;5.81;100.00;100376.28;5044332;28;20158;-73
2024/03/24 10:59:13;;;;;;;22.83;5.28;;;;;;;5.73;100.00;100375.25;5042104;28;20064;-73
2024/03/24 11:01:39;;;;;;;19.85;4.93;;;;;;;5.85;100.00;100377.19;5045064;28;20033;-67
2024/03/24 11:04:05;;;;;;;21.17;4.85;;;;;;;5.80;100.00;100385.00;5040646;28;20040;-78
2024/03/24 11:06:31;;;;;;;20.73;4.70;;;;;;;5.81;100.00;100383.25;5044007;28;20029;-71
2024/03/24 11:08:57;;;;;;;19.90;4.80;;;;;;;5.87;100.00;100394.75;5043244;28;20021;-71